Portada
METAR-TAF:

METAR-TAF

Aeropuertos :

Mécheria, Argelia

latitud: 34-56N, longitud: 000-26W, altitud: 1149 m

Observación

El informe se hizo hace 5 horas y 47 minutos, a las 18:00 UTC
Viento 14 kt del suroeste
Temperatura 21°C
Humedad 16%
Presión 1012 hPa
Visibilidad: 8000 m
Nubes dispersas a una altura de 3000 ft
Nubes dispersas a una altura de 23300 ft

METAR: DAAY 311800Z 22014KT 8000 SCT030 SCT233 21/M06 Q1012

Hora: 00:47 (23:47 UTC)

Pronóstico

El informe se hizo hace 6 horas y 47 minutos, a las 17:00 UTC
Pronóstico válido del 31 a las 18 UTC al 01 a las 03 UTC
Viento 18 kt del suroeste
Visibilidad: 6000 m
Nubes dispersas a una altura de 3000 ft
Evolucionando progresivamente
del 31 a las 22 UTC al 01 a las 01 UTC
Viento 14 kt del norte

TAF: DAAY 311700Z 3118/0103 22018KT 6000 SCT030 BECMG 3122/0101 36014KT

Observaciones y pronósticos meteorológicos de más de 4000 aeropuertos (mensajes METAR y TAF).

Los puntos amarillos y rojos representan las estaciones disponibles.

Ponga el ratón en el punto deseado para ver el nombre de la estación.

Haga clic para ver las observaciones y los pronósticos meteorológicos.

Para cambiar el mapa : haga clic en los botones verdes con una cruz de color negro para hacer un zoom, en el botón verde con un guión para alejar o en las flechas verdes para mapas adyacentes.


METAR-TAF: